< < Back
Terminal Aerodrome Forecast


Current Version              Previous Versions:   1  2  3  4  5  6  7  8  9  

Terminal Aerodrome Forecast

659
FTUS44 KBMX 251720
TAFMGM
TAF
KMGM 251720Z 2518/2618 31005KT P6SM VCTS SCT050CB
     FM260100 VRB02KT P6SM SCT250=

Latest METAR

573
SAUS80 KWBC 260100
MTRMGM
METAR KMGM 260053Z 00000KT 10SM CLR 32/22 A3003 RMK AO2 SLP165
T03220217


USA.gov is the U.S. government's official web portal to all federal, state and local government web resources and services.